createdAt,value
2017-07-01T00:00:37.785Z,17.42
2017-07-01T00:01:37.786Z,17.36
2017-07-01T00:02:37.793Z,17.31
2017-07-01T00:03:37.789Z,17.3
2017-07-01T00:04:37.790Z,17.3
2017-07-01T00:05:37.844Z,17.36
2017-07-01T00:06:37.793Z,17.39
2017-07-01T00:07:37.798Z,17.33
2017-07-01T00:08:37.796Z,17.38
2017-07-01T00:09:37.800Z,17.38
2017-07-01T00:10:37.794Z,17.39
2017-07-01T00:11:37.801Z,17.38
2017-07-01T00:12:37.496Z,17.49
2017-07-01T00:13:37.814Z,17.44
2017-07-01T00:14:37.184Z,17.49
2017-07-01T00:15:37.812Z,17.46
2017-07-01T00:16:37.811Z,17.59
2017-07-01T00:17:37.811Z,17.6
2017-07-01T00:18:37.820Z,17.65
2017-07-01T00:19:37.819Z,17.64
2017-07-01T00:20:40.725Z,17.64
2017-07-01T00:21:37.504Z,17.71
2017-07-01T00:22:37.819Z,17.71
2017-07-01T00:23:37.821Z,17.79
2017-07-01T00:24:37.826Z,17.74
2017-07-01T00:25:37.822Z,17.71
2017-07-01T00:26:37.824Z,17.78
2017-07-01T00:27:37.827Z,17.76
2017-07-01T00:28:37.833Z,17.8
2017-07-01T00:29:37.527Z,17.87
2017-07-01T00:30:37.840Z,17.9
2017-07-01T00:31:37.847Z,17.89
2017-07-01T00:32:37.535Z,17.86
2017-07-01T00:33:37.215Z,17.83
2017-07-01T00:34:37.544Z,17.87
2017-07-01T00:35:37.849Z,17.9
2017-07-01T00:36:37.226Z,17.86
2017-07-01T00:37:37.851Z,17.94
2017-07-01T00:38:37.229Z,17.95
2017-07-01T00:39:37.882Z,18.08
2017-07-01T00:40:37.861Z,18.05
2017-07-01T00:41:37.547Z,18.07
2017-07-01T00:42:37.867Z,18.07
2017-07-01T00:43:37.555Z,18.05
2017-07-01T00:44:37.871Z,18.05
2017-07-01T00:45:37.240Z,18.05
2017-07-01T00:46:37.872Z,18.03
2017-07-01T00:47:37.864Z,18
2017-07-01T00:48:37.557Z,18.03
2017-07-01T00:49:37.867Z,18.08
2017-07-01T00:50:37.869Z,17.97
2017-07-01T00:51:37.576Z,18
2017-07-01T00:52:37.570Z,17.9
2017-07-01T00:53:37.890Z,17.94
2017-07-01T00:54:37.883Z,17.82
2017-07-01T00:55:37.582Z,17.85
2017-07-01T00:56:37.879Z,17.79
2017-07-01T00:57:37.886Z,17.78
2017-07-01T00:58:37.887Z,17.76
2017-07-01T00:59:37.890Z,17.71
2017-07-01T01:00:37.272Z,17.68
2017-07-01T01:01:37.585Z,17.68
2017-07-01T01:02:37.911Z,17.71
2017-07-01T01:03:37.593Z,17.68
2017-07-01T01:04:37.285Z,17.72
2017-07-01T01:05:37.909Z,17.72
2017-07-01T01:06:38.009Z,17.72
2017-07-01T01:07:37.601Z,17.72
2017-07-01T01:08:37.602Z,17.74
2017-07-01T01:09:37.915Z,17.76
2017-07-01T01:10:37.293Z,17.79
2017-07-01T01:11:37.290Z,17.76
2017-07-01T01:12:37.608Z,17.82
2017-07-01T01:13:37.923Z,17.83
2017-07-01T01:14:37.297Z,17.79
2017-07-01T01:15:37.915Z,17.92
2017-07-01T01:16:37.920Z,17.86
2017-07-01T01:17:37.919Z,17.97
2017-07-01T01:18:37.926Z,17.97
2017-07-01T01:19:37.928Z,17.9
2017-07-01T01:20:37.924Z,17.94
2017-07-01T01:21:42.794Z,17.98
2017-07-01T01:22:37.943Z,18.04
2017-07-01T01:23:37.943Z,18.05
2017-07-01T01:24:37.944Z,18.07
2017-07-01T01:25:37.944Z,18
2017-07-01T01:26:37.626Z,17.97
2017-07-01T01:27:37.945Z,17.97
2017-07-01T01:28:37.947Z,17.92
2017-07-01T01:29:37.947Z,17.94
2017-07-01T01:30:37.640Z,17.97
2017-07-01T01:31:37.953Z,17.94
2017-07-01T01:32:37.952Z,17.9
2017-07-01T01:33:37.957Z,17.95
2017-07-01T01:34:37.955Z,17.86
2017-07-01T01:35:37.960Z,17.97
2017-07-01T01:36:39.684Z,17.79
2017-07-01T01:37:37.651Z,17.78
2017-07-01T01:38:37.962Z,17.79
2017-07-01T01:39:37.653Z,17.8
2017-07-01T01:40:37.967Z,17.8
2017-07-01T01:41:37.969Z,17.8
2017-07-01T01:42:37.977Z,17.79
2017-07-01T01:43:37.691Z,17.78
2017-07-01T01:44:37.973Z,17.76
2017-07-01T01:45:37.979Z,17.74
2017-07-01T01:46:37.673Z,17.74
2017-07-01T01:47:37.989Z,17.72
2017-07-01T01:48:37.674Z,17.79
2017-07-01T01:49:37.986Z,17.78
2017-07-01T01:50:37.989Z,17.78
2017-07-01T01:51:37.677Z,17.8
2017-07-01T01:52:38.002Z,17.72
2017-07-01T01:53:37.682Z,17.78
2017-07-01T01:54:37.684Z,17.79
2017-07-01T01:55:38.000Z,17.76
2017-07-01T01:56:37.995Z,17.74
2017-07-01T01:57:37.997Z,17.71
2017-07-01T01:58:37.698Z,17.71
2017-07-01T01:59:37.705Z,17.71
2017-07-01T02:00:37.694Z,17.71
2017-07-01T02:01:38.013Z,17.7
2017-07-01T02:02:37.703Z,17.72
2017-07-01T02:03:37.702Z,17.68
2017-07-01T02:04:37.702Z,17.72
2017-07-01T02:05:38.015Z,17.71
2017-07-01T02:06:38.021Z,17.68
2017-07-01T02:07:37.710Z,17.67
2017-07-01T02:08:37.713Z,17.56
2017-07-01T02:09:37.719Z,17.59
2017-07-01T02:10:37.720Z,17.59
2017-07-01T02:11:37.716Z,17.59
2017-07-01T02:12:38.076Z,17.42
2017-07-01T02:13:38.030Z,17.42
2017-07-01T02:14:38.041Z,17.42
2017-07-01T02:15:38.036Z,17.38
2017-07-01T02:16:37.727Z,17.39
2017-07-01T02:17:38.037Z,17.39
2017-07-01T02:18:38.039Z,17.36
2017-07-01T02:19:38.033Z,17.36
2017-07-01T02:20:38.036Z,17.41
2017-07-01T02:21:38.040Z,17.39
2017-07-01T02:22:38.044Z,17.49
2017-07-01T02:23:38.049Z,17.36
2017-07-01T02:24:37.729Z,17.45
2017-07-01T02:25:38.044Z,17.38
2017-07-01T02:26:37.751Z,17.38
2017-07-01T02:27:37.735Z,17.34
2017-07-01T02:28:38.054Z,17.45
2017-07-01T02:29:38.056Z,17.33
2017-07-01T02:30:38.082Z,17.33
2017-07-01T02:31:37.767Z,17.31
2017-07-01T02:32:38.054Z,17.36
2017-07-01T02:33:38.054Z,17.31
2017-07-01T02:34:38.056Z,17.31
2017-07-01T02:35:37.745Z,17.36
2017-07-01T02:36:37.747Z,17.42
2017-07-01T02:37:38.110Z,17.31
2017-07-01T02:38:38.063Z,17.33
2017-07-01T02:39:37.751Z,17.3
2017-07-01T02:40:38.071Z,17.33
2017-07-01T02:41:38.066Z,17.36
2017-07-01T02:42:38.073Z,17.36
2017-07-01T02:43:38.072Z,17.26
2017-07-01T02:44:38.075Z,17.22
2017-07-01T02:45:38.077Z,17.16
2017-07-01T02:46:37.781Z,17.2
2017-07-01T02:47:37.770Z,17.09
2017-07-01T02:48:38.074Z,17.04
2017-07-01T02:49:38.080Z,17.04
2017-07-01T02:50:37.775Z,17.01
2017-07-01T02:51:38.077Z,17.02
2017-07-01T02:52:38.293Z,17.09
2017-07-01T02:53:38.086Z,17.01
2017-07-01T02:54:38.093Z,17.04
2017-07-01T02:55:38.084Z,16.96
2017-07-01T02:56:38.093Z,16.97
2017-07-01T02:57:38.095Z,17.01
2017-07-01T02:58:38.088Z,17.02
2017-07-01T02:59:38.088Z,16.99
2017-07-01T03:00:37.782Z,16.99
2017-07-01T03:01:38.091Z,17.01
2017-07-01T03:02:38.092Z,17.05
2017-07-01T03:03:38.094Z,17.08
2017-07-01T03:04:37.782Z,17.2
2017-07-01T03:05:38.101Z,17.2
2017-07-01T03:06:38.100Z,17.26
2017-07-01T03:07:38.150Z,17.23
2017-07-01T03:08:38.108Z,17.29
2017-07-01T03:09:37.833Z,17.3
2017-07-01T03:10:38.150Z,17.31
2017-07-01T03:11:38.124Z,17.34
2017-07-01T03:12:38.120Z,17.2
2017-07-01T03:13:38.125Z,17.31
2017-07-01T03:14:37.812Z,17.14
2017-07-01T03:15:38.130Z,17.12
2017-07-01T03:16:38.127Z,17.2
2017-07-01T03:17:38.122Z,17.15
2017-07-01T03:18:38.128Z,17.16
2017-07-01T03:19:38.127Z,17.12
2017-07-01T03:20:38.132Z,17.11
2017-07-01T03:21:38.128Z,17.06
2017-07-01T03:22:43.736Z,17.01
2017-07-01T03:23:38.141Z,17.01
2017-07-01T03:24:38.170Z,16.97
2017-07-01T03:25:38.138Z,16.99
2017-07-01T03:26:38.135Z,17.06
2017-07-01T03:27:37.823Z,17.09
2017-07-01T03:28:37.868Z,17.06
2017-07-01T03:29:38.145Z,16.94
2017-07-01T03:30:38.141Z,17.02
2017-07-01T03:31:38.134Z,16.91
2017-07-01T03:32:37.829Z,16.86
2017-07-01T03:33:37.826Z,16.83
2017-07-01T03:34:38.149Z,16.83
2017-07-01T03:35:38.145Z,16.84
2017-07-01T03:36:38.161Z,16.78
2017-07-01T03:37:37.527Z,16.83
2017-07-01T03:38:38.152Z,16.83
2017-07-01T03:39:38.150Z,16.87
2017-07-01T03:40:37.841Z,16.81
2017-07-01T03:41:38.157Z,16.91
2017-07-01T03:42:38.152Z,16.96
2017-07-01T03:43:37.838Z,17.04
2017-07-01T03:44:38.168Z,16.94
2017-07-01T03:45:38.152Z,17.04
2017-07-01T03:46:38.157Z,16.94
2017-07-01T03:47:38.157Z,17.02
2017-07-01T03:48:38.164Z,17.01
2017-07-01T03:49:38.164Z,16.91
2017-07-01T03:50:38.170Z,16.94
2017-07-01T03:51:38.168Z,16.96
2017-07-01T03:52:38.162Z,16.94
2017-07-01T03:53:37.847Z,16.86
2017-07-01T03:54:38.167Z,16.91
2017-07-01T03:55:38.170Z,17.06
2017-07-01T03:56:38.172Z,17.01
2017-07-01T03:57:37.862Z,17.01
2017-07-01T03:58:37.864Z,17.09
2017-07-01T03:59:38.212Z,17.06
2017-07-01T04:00:38.215Z,17.09
2017-07-01T04:01:38.176Z,17.12
2017-07-01T04:02:38.212Z,17.15
2017-07-01T04:03:37.866Z,17.08
2017-07-01T04:04:38.186Z,17.08
2017-07-01T04:05:38.175Z,17.14
2017-07-01T04:06:38.179Z,17.16
2017-07-01T04:07:38.181Z,17.26
2017-07-01T04:08:38.290Z,17.15
2017-07-01T04:09:38.196Z,17.22
2017-07-01T04:10:38.199Z,17.15
2017-07-01T04:11:38.193Z,17.12
2017-07-01T04:12:37.887Z,17.19
2017-07-01T04:13:38.202Z,17.26
2017-07-01T04:14:38.200Z,17.22
2017-07-01T04:15:38.203Z,17.2
2017-07-01T04:16:38.217Z,17.29
2017-07-01T04:17:38.194Z,17.31
2017-07-01T04:18:37.882Z,17.42
2017-07-01T04:19:37.887Z,17.33
2017-07-01T04:20:37.892Z,17.41
2017-07-01T04:21:38.222Z,17.36
2017-07-01T04:22:37.906Z,17.34
2017-07-01T04:23:40.368Z,17.3
2017-07-01T04:24:38.222Z,17.33
2017-07-01T04:25:38.214Z,17.36
2017-07-01T04:26:37.913Z,17.45
2017-07-01T04:27:38.212Z,17.36
2017-07-01T04:28:38.224Z,17.29
2017-07-01T04:29:37.914Z,17.38
2017-07-01T04:30:38.219Z,17.39
2017-07-01T04:31:38.227Z,17.38
2017-07-01T04:32:37.933Z,17.42
2017-07-01T04:33:38.229Z,17.48
2017-07-01T04:34:37.603Z,17.49
2017-07-01T04:35:38.224Z,17.45
2017-07-01T04:36:38.231Z,17.44
2017-07-01T04:37:38.226Z,17.57
2017-07-01T04:38:39.077Z,17.65
2017-07-01T04:39:38.264Z,17.6
2017-07-01T04:40:38.240Z,17.72
2017-07-01T04:41:38.246Z,17.74
2017-07-01T04:42:38.245Z,17.74
2017-07-01T04:43:38.237Z,17.59
2017-07-01T04:44:38.245Z,17.6
2017-07-01T04:45:38.249Z,17.56
2017-07-01T04:46:38.257Z,17.59
2017-07-01T04:47:38.265Z,17.54
2017-07-01T04:48:38.252Z,17.46
2017-07-01T04:49:38.267Z,17.31
2017-07-01T04:50:37.941Z,17.33
2017-07-01T04:51:38.268Z,17.39
2017-07-01T04:52:38.264Z,17.33
2017-07-01T04:53:37.959Z,17.39
2017-07-01T04:54:38.272Z,17.39
2017-07-01T04:55:37.958Z,17.48
2017-07-01T04:56:38.297Z,17.42
2017-07-01T04:57:38.269Z,17.49
2017-07-01T04:58:37.958Z,17.51
2017-07-01T04:59:37.650Z,17.52
2017-07-01T05:00:38.277Z,17.56
2017-07-01T05:01:38.296Z,17.64
2017-07-01T05:02:37.983Z,17.6
2017-07-01T05:03:38.281Z,17.68
2017-07-01T05:04:37.986Z,17.6
2017-07-01T05:05:37.985Z,17.63
2017-07-01T05:06:38.286Z,17.72
2017-07-01T05:07:38.290Z,17.72
2017-07-01T05:08:37.991Z,17.79
2017-07-01T05:09:38.765Z,17.82
2017-07-01T05:10:38.296Z,17.95
2017-07-01T05:11:38.312Z,17.9
2017-07-01T05:12:38.001Z,17.8
2017-07-01T05:13:38.307Z,17.74
2017-07-01T05:14:38.352Z,17.67
2017-07-01T05:15:38.306Z,17.64
2017-07-01T05:16:38.006Z,17.59
2017-07-01T05:17:38.003Z,17.6
2017-07-01T05:18:38.310Z,17.54
2017-07-01T05:19:37.688Z,17.56
2017-07-01T05:20:38.314Z,17.63
2017-07-01T05:21:38.005Z,17.57
2017-07-01T05:22:38.007Z,17.68
2017-07-01T05:23:38.322Z,17.65
2017-07-01T05:24:38.374Z,17.76
2017-07-01T05:25:38.011Z,17.76
2017-07-01T05:26:38.014Z,17.74
2017-07-01T05:27:38.010Z,17.74
2017-07-01T05:28:37.706Z,17.87
2017-07-01T05:29:38.013Z,17.94
2017-07-01T05:30:38.326Z,17.9
2017-07-01T05:31:38.334Z,18
2017-07-01T05:32:38.332Z,18.11
2017-07-01T05:33:38.019Z,18.18
2017-07-01T05:34:38.332Z,18.11
2017-07-01T05:35:38.333Z,18.11
2017-07-01T05:36:38.023Z,18.13
2017-07-01T05:37:38.347Z,18.16
2017-07-01T05:38:38.337Z,18.28
2017-07-01T05:39:44.205Z,18.5
2017-07-01T05:40:38.028Z,18.49
2017-07-01T05:41:38.347Z,18.53
2017-07-01T05:42:38.347Z,18.47
2017-07-01T05:43:38.352Z,18.53
2017-07-01T05:44:38.042Z,18.66
2017-07-01T05:45:38.041Z,18.7
2017-07-01T05:46:38.355Z,18.73
2017-07-01T05:47:38.377Z,18.71
2017-07-01T05:48:38.368Z,18.7
2017-07-01T05:49:38.374Z,18.65
2017-07-01T05:50:38.367Z,18.73
2017-07-01T05:51:38.366Z,18.73
2017-07-01T05:52:38.380Z,18.7
2017-07-01T05:53:38.382Z,18.63
2017-07-01T05:54:38.385Z,18.68
2017-07-01T05:55:38.079Z,18.68
2017-07-01T05:56:38.387Z,18.59
2017-07-01T05:57:38.389Z,18.73
2017-07-01T05:58:38.390Z,18.71
2017-07-01T05:59:38.389Z,18.71
2017-07-01T06:00:38.402Z,18.74
2017-07-01T06:01:38.084Z,18.83
2017-07-01T06:02:38.402Z,18.84
2017-07-01T06:03:38.412Z,18.96
2017-07-01T06:04:37.780Z,18.96
2017-07-01T06:05:38.409Z,19.09
2017-07-01T06:06:38.105Z,19.15
2017-07-01T06:07:38.112Z,19.14
2017-07-01T06:08:38.101Z,19.07
2017-07-01T06:09:38.421Z,19.11
2017-07-01T06:10:39.321Z,19.09
2017-07-01T06:11:38.424Z,19.18
2017-07-01T06:12:38.113Z,19.04
2017-07-01T06:13:38.116Z,18.93
2017-07-01T06:14:38.450Z,18.95
2017-07-01T06:15:38.452Z,18.95
2017-07-01T06:16:38.124Z,19.07
2017-07-01T06:17:38.441Z,19.12
2017-07-01T06:18:38.454Z,19.34
2017-07-01T06:19:38.452Z,19.45
2017-07-01T06:20:38.137Z,19.56
2017-07-01T06:21:38.455Z,19.77
2017-07-01T06:22:38.462Z,19.89
2017-07-01T06:23:38.458Z,19.94
2017-07-01T06:24:38.465Z,20.13
2017-07-01T06:25:40.368Z,20.13
2017-07-01T06:26:38.160Z,20
2017-07-01T06:27:38.475Z,20.06
2017-07-01T06:28:38.482Z,20.22
2017-07-01T06:29:38.491Z,20.25
2017-07-01T06:30:39.290Z,20.37
2017-07-01T06:31:38.181Z,20.29
2017-07-01T06:32:38.499Z,20.28
2017-07-01T06:33:38.499Z,20.22
2017-07-01T06:34:38.500Z,20.07
2017-07-01T06:35:38.515Z,20.03
2017-07-01T06:36:38.516Z,20.06
2017-07-01T06:37:38.198Z,19.94
2017-07-01T06:38:38.518Z,19.96
2017-07-01T06:39:38.519Z,19.91
2017-07-01T06:40:38.534Z,19.55
2017-07-01T06:41:38.222Z,19.37
2017-07-01T06:42:38.222Z,19.34
2017-07-01T06:43:38.533Z,19.33
2017-07-01T06:44:38.534Z,19.48
2017-07-01T06:45:38.538Z,19.47
2017-07-01T06:46:37.917Z,19.49
2017-07-01T06:47:38.552Z,19.51
2017-07-01T06:48:38.559Z,19.52
2017-07-01T06:49:38.251Z,19.49
2017-07-01T06:50:38.561Z,19.48
2017-07-01T06:51:38.562Z,19.51
2017-07-01T06:52:38.566Z,19.52
2017-07-01T06:53:38.252Z,19.54
2017-07-01T06:54:38.569Z,19.55
2017-07-01T06:55:38.589Z,19.51
2017-07-01T06:56:38.581Z,19.49
2017-07-01T06:57:38.588Z,19.47
2017-07-01T06:58:38.587Z,19.54
2017-07-01T06:59:38.635Z,19.66
2017-07-01T07:00:38.595Z,19.79
2017-07-01T07:01:38.283Z,19.84
2017-07-01T07:02:38.601Z,19.74
2017-07-01T07:03:38.600Z,19.77
2017-07-01T07:04:38.606Z,19.86
2017-07-01T07:05:38.609Z,19.84
2017-07-01T07:06:38.306Z,19.85
2017-07-01T07:07:38.300Z,19.96
2017-07-01T07:08:38.619Z,20
2017-07-01T07:09:38.631Z,20.02
2017-07-01T07:10:38.630Z,20.02
2017-07-01T07:11:38.369Z,19.96
2017-07-01T07:12:38.639Z,19.88
2017-07-01T07:13:38.643Z,19.84
2017-07-01T07:14:38.646Z,19.67
2017-07-01T07:15:38.016Z,19.7
2017-07-01T07:16:38.646Z,19.59
2017-07-01T07:17:38.658Z,19.7
2017-07-01T07:18:38.689Z,19.7
2017-07-01T07:19:38.656Z,19.67
2017-07-01T07:20:38.662Z,19.81
2017-07-01T07:21:38.667Z,19.79
2017-07-01T07:22:38.670Z,19.86
2017-07-01T07:23:38.692Z,19.84
2017-07-01T07:24:38.681Z,19.79
2017-07-01T07:25:38.696Z,19.89
2017-07-01T07:26:39.135Z,19.89
2017-07-01T07:27:38.374Z,19.91
2017-07-01T07:28:38.687Z,20.02
2017-07-01T07:29:38.693Z,20.13
2017-07-01T07:30:38.742Z,20.13
2017-07-01T07:31:38.387Z,20.07
2017-07-01T07:32:38.090Z,20.19
2017-07-01T07:33:38.706Z,20.28
2017-07-01T07:34:38.714Z,20.19
2017-07-01T07:35:38.440Z,20.21
2017-07-01T07:36:38.719Z,20.22
2017-07-01T07:37:38.722Z,20.31
2017-07-01T07:38:38.737Z,20.37
2017-07-01T07:39:38.437Z,20.31
2017-07-01T07:40:38.420Z,20.29
2017-07-01T07:41:39.273Z,20.19
2017-07-01T07:42:38.741Z,20.03
2017-07-01T07:43:38.751Z,20.06
2017-07-01T07:44:38.750Z,20.02
2017-07-01T07:45:38.766Z,20.06
2017-07-01T07:46:38.771Z,20.18
2017-07-01T07:47:38.454Z,20.28
2017-07-01T07:48:38.457Z,20.29
2017-07-01T07:49:38.455Z,20.32
2017-07-01T07:50:38.775Z,20.39
2017-07-01T07:51:38.821Z,20.34
2017-07-01T07:52:38.777Z,20.39
2017-07-01T07:53:38.788Z,20.37
2017-07-01T07:54:38.475Z,20.37
2017-07-01T07:55:38.790Z,20.39
2017-07-01T07:56:38.796Z,20.39
2017-07-01T07:57:38.500Z,20.39
2017-07-01T07:58:38.811Z,20.36
2017-07-01T07:59:38.817Z,20.28
2017-07-01T08:00:38.503Z,20.28
2017-07-01T08:01:38.818Z,20.18
2017-07-01T08:02:38.507Z,20.04
2017-07-01T08:03:38.819Z,20.02
2017-07-01T08:04:38.840Z,20
2017-07-01T08:05:38.837Z,20.14
2017-07-01T08:06:38.531Z,20.06
2017-07-01T08:07:38.529Z,19.95
2017-07-01T08:08:38.842Z,19.77
2017-07-01T08:09:38.840Z,19.92
2017-07-01T08:10:38.844Z,19.95
2017-07-01T08:11:38.853Z,20.07
2017-07-01T08:12:39.082Z,19.99
2017-07-01T08:13:38.860Z,20.06
2017-07-01T08:14:38.573Z,20.16
2017-07-01T08:15:38.879Z,20.14
2017-07-01T08:16:38.552Z,20.14
2017-07-01T08:17:38.881Z,20.26
2017-07-01T08:18:38.569Z,20.29
2017-07-01T08:19:38.882Z,20.44
2017-07-01T08:20:38.894Z,20.4
2017-07-01T08:21:38.890Z,20.52
2017-07-01T08:22:38.890Z,20.62
2017-07-01T08:23:38.581Z,20.52
2017-07-01T08:24:38.897Z,20.74
2017-07-01T08:25:38.898Z,20.84
2017-07-01T08:26:38.902Z,20.97
2017-07-01T08:27:39.105Z,21
2017-07-01T08:28:38.620Z,21.07
2017-07-01T08:29:38.913Z,21.09
2017-07-01T08:30:38.950Z,21.2
2017-07-01T08:31:38.959Z,21.22
2017-07-01T08:32:38.617Z,21.33
2017-07-01T08:33:38.619Z,21.37
2017-07-01T08:34:39.050Z,21.29
2017-07-01T08:35:38.956Z,21.22
2017-07-01T08:36:38.955Z,21.09
2017-07-01T08:37:38.634Z,20.97
2017-07-01T08:38:38.953Z,20.93
2017-07-01T08:39:38.958Z,20.9
2017-07-01T08:40:38.958Z,20.85
2017-07-01T08:41:38.657Z,20.88
2017-07-01T08:42:42.619Z,20.84
2017-07-01T08:43:38.977Z,20.9
2017-07-01T08:44:38.664Z,20.81
2017-07-01T08:45:38.980Z,20.97
2017-07-01T08:46:38.981Z,21.17
2017-07-01T08:47:38.987Z,21.11
2017-07-01T08:48:38.691Z,21.36
2017-07-01T08:49:38.991Z,21.45
2017-07-01T08:50:38.691Z,21.35
2017-07-01T08:51:39.003Z,21.43
2017-07-01T08:52:39.009Z,21.46
2017-07-01T08:53:39.022Z,21.7
2017-07-01T08:54:38.706Z,21.98
2017-07-01T08:55:39.026Z,21.91
2017-07-01T08:56:39.025Z,22.15
2017-07-01T08:57:39.036Z,22.47
2017-07-01T08:58:39.042Z,22.51
2017-07-01T08:59:39.072Z,22.94
2017-07-01T09:00:39.057Z,23.23
2017-07-01T09:01:39.051Z,23.28
2017-07-01T09:02:39.059Z,23.34
2017-07-01T09:03:39.060Z,23.39
2017-07-01T09:04:38.756Z,23.36
2017-07-01T09:05:38.761Z,23.32
2017-07-01T09:06:39.086Z,23.34
2017-07-01T09:07:39.086Z,23.34
2017-07-01T09:08:39.088Z,23.2
2017-07-01T09:09:39.102Z,23.12
2017-07-01T09:10:39.098Z,22.99
2017-07-01T09:11:39.104Z,22.73
2017-07-01T09:12:39.105Z,22.57
2017-07-01T09:13:39.123Z,22.28
2017-07-01T09:14:39.123Z,22.23
2017-07-01T09:15:39.131Z,22.06
2017-07-01T09:16:39.128Z,21.83
2017-07-01T09:17:39.135Z,21.72
2017-07-01T09:18:39.142Z,21.58
2017-07-01T09:19:38.835Z,21.46
2017-07-01T09:20:38.836Z,21.37
2017-07-01T09:21:39.152Z,21.25
2017-07-01T09:22:39.175Z,21.22
2017-07-01T09:23:39.161Z,21.18
2017-07-01T09:24:39.168Z,21.09
2017-07-01T09:25:39.169Z,21.02
2017-07-01T09:26:39.180Z,21.06
2017-07-01T09:27:38.869Z,21.09
2017-07-01T09:28:38.867Z,21.11
2017-07-01T09:29:38.871Z,21.21
2017-07-01T09:30:39.198Z,21.25
2017-07-01T09:31:39.194Z,21.32
2017-07-01T09:32:39.214Z,21.35
2017-07-01T09:33:39.218Z,21.4
2017-07-01T09:34:39.218Z,21.22
2017-07-01T09:35:39.215Z,21.15
2017-07-01T09:36:39.219Z,21.07
2017-07-01T09:37:39.217Z,21.03
2017-07-01T09:38:38.610Z,21.06
2017-07-01T09:39:39.227Z,21.05
2017-07-01T09:40:39.233Z,21.02
2017-07-01T09:41:39.236Z,20.93
2017-07-01T09:42:39.238Z,20.93
2017-07-01T09:43:39.292Z,20.96
2017-07-01T09:44:38.632Z,21
2017-07-01T09:45:39.255Z,21.03
2017-07-01T09:46:39.253Z,21.06
2017-07-01T09:47:38.957Z,21.07
2017-07-01T09:48:39.260Z,21.07
2017-07-01T09:49:39.274Z,21.11
2017-07-01T09:50:38.965Z,21.09
2017-07-01T09:51:39.277Z,21.07
2017-07-01T09:52:38.990Z,21.07
2017-07-01T09:53:38.968Z,21.05
2017-07-01T09:54:39.285Z,21.17
2017-07-01T09:55:39.288Z,21.22
2017-07-01T09:56:39.297Z,21.45
2017-07-01T09:57:39.295Z,21.45
2017-07-01T09:58:39.551Z,21.57
2017-07-01T09:59:39.304Z,21.62
2017-07-01T10:00:39.311Z,21.7
2017-07-01T10:01:39.311Z,21.6
2017-07-01T10:02:39.321Z,21.66
2017-07-01T10:03:39.006Z,21.64
2017-07-01T10:04:39.011Z,21.61
2017-07-01T10:05:39.021Z,21.51
2017-07-01T10:06:39.332Z,21.52
2017-07-01T10:07:39.351Z,21.52
2017-07-01T10:08:39.338Z,21.5
2017-07-01T10:09:39.360Z,21.62
2017-07-01T10:10:39.348Z,21.75
2017-07-01T10:11:39.353Z,21.8
2017-07-01T10:12:39.044Z,21.77
2017-07-01T10:13:39.460Z,21.82
2017-07-01T10:14:39.364Z,21.76
2017-07-01T10:15:39.367Z,21.89
2017-07-01T10:16:39.380Z,21.92
2017-07-01T10:17:39.066Z,22.08
2017-07-01T10:18:39.383Z,22.06
2017-07-01T10:19:39.073Z,22.11
2017-07-01T10:20:39.398Z,22.04
2017-07-01T10:21:38.767Z,22.02
2017-07-01T10:22:39.086Z,22.08
2017-07-01T10:23:39.410Z,22.2
2017-07-01T10:24:39.409Z,22.25
2017-07-01T10:25:39.098Z,22.1
2017-07-01T10:26:39.436Z,22.11
2017-07-01T10:27:39.433Z,22.02
2017-07-01T10:28:41.352Z,21.95
2017-07-01T10:29:39.440Z,21.88
2017-07-01T10:30:38.815Z,21.72
2017-07-01T10:31:39.128Z,21.64
2017-07-01T10:32:39.136Z,21.66
2017-07-01T10:33:39.445Z,21.64
2017-07-01T10:34:39.450Z,21.79
2017-07-01T10:35:39.142Z,21.95
2017-07-01T10:36:39.459Z,22.04
2017-07-01T10:37:39.467Z,22.13
2017-07-01T10:38:39.471Z,22.3
2017-07-01T10:39:39.471Z,22.38
2017-07-01T10:40:39.475Z,22.33
2017-07-01T10:41:39.501Z,22.36
2017-07-01T10:42:39.187Z,22.3
2017-07-01T10:43:39.740Z,22.23
2017-07-01T10:44:39.506Z,22.26
2017-07-01T10:45:39.186Z,22.2
2017-07-01T10:46:39.199Z,22.14
2017-07-01T10:47:39.203Z,22.23
2017-07-01T10:48:38.888Z,22.29
2017-07-01T10:49:39.705Z,22.14
2017-07-01T10:50:39.215Z,22.07
2017-07-01T10:51:39.216Z,22.04
2017-07-01T10:52:39.530Z,22.14
2017-07-01T10:53:39.229Z,22.22
2017-07-01T10:54:39.560Z,22.22
2017-07-01T10:55:39.241Z,22.23
2017-07-01T10:56:39.568Z,22.25
2017-07-01T10:57:39.256Z,22.41
2017-07-01T10:58:43.080Z,22.39
2017-07-01T10:59:39.567Z,22.45
2017-07-01T11:00:39.287Z,22.63
2017-07-01T11:01:39.577Z,22.78
2017-07-01T11:02:39.578Z,22.84
2017-07-01T11:03:39.269Z,22.9
2017-07-01T11:04:39.587Z,23.02
2017-07-01T11:05:39.281Z,23.32
2017-07-01T11:06:39.287Z,23.44
2017-07-01T11:07:39.619Z,23.65
2017-07-01T11:08:39.673Z,23.78
2017-07-01T11:09:39.631Z,23.69
2017-07-01T11:10:39.641Z,23.62
2017-07-01T11:11:39.648Z,23.56
2017-07-01T11:12:39.643Z,23.63
2017-07-01T11:13:39.649Z,23.62
2017-07-01T11:14:39.651Z,23.65
2017-07-01T11:15:39.339Z,23.73
2017-07-01T11:16:39.651Z,23.71
2017-07-01T11:17:39.031Z,23.58
2017-07-01T11:18:39.036Z,23.51
2017-07-01T11:19:39.038Z,23.65
2017-07-01T11:20:39.677Z,23.59
2017-07-01T11:21:39.048Z,23.54
2017-07-01T11:22:39.687Z,23.62
2017-07-01T11:23:39.700Z,23.84
2017-07-01T11:24:41.305Z,23.81
2017-07-01T11:25:39.731Z,23.65
2017-07-01T11:26:39.711Z,23.48
2017-07-01T11:27:39.708Z,23.44
2017-07-01T11:28:39.402Z,23.46
2017-07-01T11:29:39.680Z,23.18
2017-07-01T11:30:39.725Z,23.13
2017-07-01T11:31:39.427Z,23.37
2017-07-01T11:32:39.738Z,23.48
2017-07-01T11:33:39.448Z,23.55
2017-07-01T11:34:39.447Z,23.69
2017-07-01T11:35:39.766Z,23.58
2017-07-01T11:36:39.764Z,23.43
2017-07-01T11:37:39.448Z,23.43
2017-07-01T11:38:39.781Z,23.41
2017-07-01T11:39:39.466Z,23.4
2017-07-01T11:40:39.783Z,23.54
2017-07-01T11:41:39.783Z,23.55
2017-07-01T11:42:39.790Z,23.51
2017-07-01T11:43:39.798Z,23.62
2017-07-01T11:44:40.157Z,23.76
2017-07-01T11:45:39.808Z,23.92
2017-07-01T11:46:39.509Z,23.99
2017-07-01T11:47:39.509Z,23.81
2017-07-01T11:48:39.512Z,23.69
2017-07-01T11:49:39.853Z,23.73
2017-07-01T11:50:39.832Z,23.48
2017-07-01T11:51:39.536Z,23.15
2017-07-01T11:52:39.853Z,23.06
2017-07-01T11:53:39.856Z,22.94
2017-07-01T11:54:39.541Z,22.96
2017-07-01T11:55:39.863Z,22.94
2017-07-01T11:56:39.863Z,22.88
2017-07-01T11:57:39.878Z,22.75
2017-07-01T11:58:39.878Z,22.65
2017-07-01T11:59:39.918Z,22.65
2017-07-01T12:00:39.889Z,22.68
2017-07-01T12:01:39.917Z,22.59
2017-07-01T12:02:39.580Z,22.55
2017-07-01T12:03:39.585Z,22.51
2017-07-01T12:04:39.935Z,22.47
2017-07-01T12:05:39.918Z,22.28
2017-07-01T12:06:39.943Z,22.14
2017-07-01T12:07:39.928Z,21.93
2017-07-01T12:08:39.613Z,21.91
2017-07-01T12:09:39.927Z,21.85
2017-07-01T12:10:39.614Z,21.91
2017-07-01T12:11:39.935Z,21.85
2017-07-01T12:12:39.946Z,21.89
2017-07-01T12:13:39.976Z,21.8
2017-07-01T12:14:39.976Z,21.8
2017-07-01T12:15:40.002Z,21.83
2017-07-01T12:16:39.959Z,21.88
2017-07-01T12:17:39.974Z,21.83
2017-07-01T12:18:39.986Z,21.73
2017-07-01T12:19:39.663Z,21.72
2017-07-01T12:20:39.667Z,21.64
2017-07-01T12:21:40.028Z,21.61
2017-07-01T12:22:39.686Z,21.61
2017-07-01T12:23:40.211Z,21.48
2017-07-01T12:24:39.989Z,21.5
2017-07-01T12:25:39.992Z,21.51
2017-07-01T12:26:39.992Z,21.46
2017-07-01T12:27:40.000Z,21.6
2017-07-01T12:28:39.706Z,21.58
2017-07-01T12:29:40.005Z,21.8
2017-07-01T12:30:41.176Z,21.85
2017-07-01T12:31:40.016Z,21.98
2017-07-01T12:32:40.020Z,22
2017-07-01T12:33:40.036Z,21.95
2017-07-01T12:34:40.040Z,21.98
2017-07-01T12:35:40.138Z,22
2017-07-01T12:36:40.039Z,22
2017-07-01T12:37:40.040Z,22.06
2017-07-01T12:38:40.044Z,22.02
2017-07-01T12:39:40.047Z,21.96
2017-07-01T12:40:40.051Z,21.89
2017-07-01T12:41:39.749Z,21.66
2017-07-01T12:42:40.097Z,21.57
2017-07-01T12:43:39.756Z,21.52
2017-07-01T12:44:40.070Z,21.48
2017-07-01T12:45:39.761Z,21.37
2017-07-01T12:46:39.763Z,21.29
2017-07-01T12:47:39.768Z,21.32
2017-07-01T12:48:40.084Z,21.22
2017-07-01T12:49:40.085Z,21.11
2017-07-01T12:50:40.090Z,21.09
2017-07-01T12:51:40.093Z,21.17
2017-07-01T12:52:40.097Z,21.27
2017-07-01T12:53:40.103Z,21.25
2017-07-01T12:54:40.104Z,21.29
2017-07-01T12:55:39.481Z,21.29